Time;durP1;ratioP1;P1;durP2;ratioP2;P2;SDS_P1;SDS_P2;PMS_P1;PMS_P2;Temp;Humidity;BMP_temperature;BMP_pressure;BME280_temperature;BME280_humidity;BME280_pressure;Samples;Min_cycle;Max_cycle;Signal;HPM_P1;HPM_P2
2022/01/18 00:04:27;;;;;;;27.60;7.90;;;;;;;6.75;64.22;101829.47;10471763;28;20167;-66
2022/01/18 00:09:37;;;;;;;26.98;7.97;;;;;;;6.77;64.18;101823.38;10471016;28;20059;-67
2022/01/18 00:14:42;;;;;;;27.83;8.02;;;;;;;6.80;64.50;101832.84;10471520;28;20045;-66
2022/01/18 00:19:56;;;;;;;30.98;10.48;;;;;;;6.85;64.62;101833.66;10470660;28;20063;-66
2022/01/18 00:24:59;;;;;;;34.75;10.98;;;;;;;6.86;64.73;101844.03;10471453;28;20508;-66
2022/01/18 00:30:27;;;;;;;33.67;11.75;;;;;;;6.89;64.85;101844.00;10470412;28;20508;-66
2022/01/18 00:35:33;;;;;;;37.63;13.40;;;;;;;6.88;64.95;101851.81;10470381;28;20053;-66
2022/01/18 00:40:35;;;;;;;39.22;12.73;;;;;;;6.89;65.04;101854.41;10469946;28;20056;-66
2022/01/18 00:45:37;;;;;;;32.35;11.88;;;;;;;6.91;65.10;101862.19;10470843;28;20171;-67
2022/01/18 00:50:39;;;;;;;36.58;11.98;;;;;;;6.89;65.15;101880.41;10469356;28;20080;-67
2022/01/18 00:55:52;;;;;;;34.08;12.10;;;;;;;6.85;65.09;101878.75;10469381;28;20094;-66
2022/01/18 01:00:54;;;;;;;34.13;10.93;;;;;;;6.84;65.19;101881.34;10469132;28;20056;-66
2022/01/18 01:05:56;;;;;;;30.77;10.75;;;;;;;6.79;65.28;101884.03;10469035;28;20052;-66
2022/01/18 01:10:57;;;;;;;27.40;10.43;;;;;;;6.75;65.33;101894.47;10450481;28;20464;-66
2022/01/18 01:47:40;;;;;;;;;;;;;;;6.48;66.17;101898.28;10467747;28;20044;-66
2022/01/18 01:52:42;;;;;;;36.25;11.00;;;;;;;6.69;65.85;101891.97;10466201;28;19924;-66
2022/01/18 01:57:45;;;;;;;31.60;10.45;;;;;;;6.71;65.52;101885.88;10467096;28;20048;-66
2022/01/18 02:02:47;;;;;;;28.80;10.27;;;;;;;6.70;65.52;101891.06;10467488;28;20550;-66
2022/01/18 02:07:50;;;;;;;28.35;10.18;;;;;;;6.67;65.67;101901.50;10450023;28;20129;-66
2022/01/18 02:12:52;;;;;;;32.13;9.68;;;;;;;6.66;65.64;101897.19;10467374;28;20144;-66
2022/01/18 02:23:16;;;;;;;33.33;8.18;;;;;;;6.59;65.81;101895.56;10465471;28;20375;-66
2022/01/18 02:28:19;;;;;;;26.80;8.43;;;;;;;6.69;65.60;101884.16;10466396;28;20469;-66
2022/01/18 02:33:22;;;;;;;22.65;8.43;;;;;;;6.65;65.82;101898.94;10469854;28;20092;-66
2022/01/18 02:38:24;;;;;;;31.55;9.45;;;;;;;6.59;65.73;101908.56;10474563;28;20062;-66
2022/01/18 02:48:48;;;;;;;29.70;8.27;;;;;;;6.58;65.58;101904.22;10457959;28;20090;-66
2022/01/18 02:54:02;;;;;;;26.83;8.15;;;;;;;6.58;65.33;101906.81;10474159;28;20081;-66
2022/01/18 02:59:31;;;;;;;29.92;8.20;;;;;;;6.61;65.29;101893.78;10473733;28;20056;-66
2022/01/18 03:04:27;;;;;;;28.80;8.05;;;;;;;6.57;65.43;101900.75;10479883;28;20398;-66
2022/01/18 03:09:29;;;;;;;24.25;8.57;;;;;;;6.59;65.32;101891.22;10481777;28;20087;-66
2022/01/18 03:14:31;;;;;;;26.65;8.05;;;;;;;6.60;65.28;101898.13;10462481;28;20052;-66
2022/01/18 03:19:33;;;;;;;29.20;9.23;;;;;;;6.61;65.07;101893.78;10479751;28;20053;-66
2022/01/18 03:24:57;;;;;;;24.85;8.82;;;;;;;6.63;65.04;101892.03;10477944;28;20078;-65
2022/01/18 03:29:59;;;;;;;34.10;9.60;;;;;;;6.60;65.11;101892.94;10461062;28;20159;-66
2022/01/18 03:35:02;;;;;;;28.42;8.82;;;;;;;6.62;65.20;101887.69;10480399;28;20080;-66
2022/01/18 03:40:05;;;;;;;29.73;8.63;;;;;;;6.62;65.12;101896.38;10461222;28;20044;-66
2022/01/18 03:45:10;;;;;;;29.30;9.70;;;;;;;6.56;65.14;101890.38;10461273;28;20056;-66
2022/01/18 03:50:14;;;;;;;26.27;9.70;;;;;;;6.54;65.23;101886.94;10461708;28;20060;-66
2022/01/18 03:55:19;;;;;;;40.33;10.70;;;;;;;6.51;65.38;101894.78;10479744;28;20544;-66
2022/01/18 04:00:25;;;;;;;33.47;11.05;;;;;;;6.55;65.17;101894.72;10479663;28;20497;-66
2022/01/18 04:05:28;;;;;;;31.85;10.80;;;;;;;6.46;65.44;101900.03;10474848;28;20079;-66
2022/01/18 04:10:30;;;;;;;32.97;11.48;;;;;;;6.51;65.59;101905.19;10472246;28;20071;-66
2022/01/18 04:15:32;;;;;;;30.00;10.35;;;;;;;6.49;65.58;101906.94;10454560;28;20472;-66
2022/01/18 04:30:56;;;;;;;33.28;11.63;;;;;;;6.48;65.52;101900.00;10472725;28;20481;-66
2022/01/18 04:35:59;;;;;;;28.40;11.05;;;;;;;6.50;65.51;101900.84;10470012;28;20053;-66
2022/01/18 04:41:07;;;;;;;29.42;10.95;;;;;;;6.45;65.52;101900.06;10471033;28;20425;-66
2022/01/18 04:51:30;;;;;;;26.65;8.63;;;;;;;6.45;65.47;101905.25;10469181;28;20056;-67
2022/01/18 05:01:40;;;;;;;29.23;10.10;;;;;;;6.37;65.65;101914.88;10466926;28;20451;-66
2022/01/18 05:06:43;;;;;;;27.77;10.43;;;;;;;6.32;65.75;101920.13;10469601;28;20082;-66
2022/01/18 05:12:37;;;;;;;27.50;9.73;;;;;;;6.31;65.73;101926.19;10469400;28;20102;-67
2022/01/18 05:27:32;;;;;;;29.48;8.95;;;;;;;6.24;65.88;101927.09;10468395;28;20136;-66
2022/01/18 05:32:34;;;;;;;28.42;8.50;;;;;;;6.20;66.02;101934.06;10469115;28;20044;-66
2022/01/18 05:37:35;;;;;;;32.85;9.52;;;;;;;6.25;65.83;101941.84;10468466;28;20060;-66
2022/01/18 05:42:37;;;;;;;28.95;10.13;;;;;;;6.23;66.06;101935.75;10468197;28;20163;-66
2022/01/18 05:47:40;;;;;;;26.52;10.18;;;;;;;6.29;65.94;101947.00;10469165;28;20051;-66
2022/01/18 05:52:42;;;;;;;29.52;9.80;;;;;;;6.27;66.10;101945.28;10468603;28;20541;-66
2022/01/18 05:57:44;;;;;;;32.78;9.63;;;;;;;6.19;66.40;101952.25;10467592;28;20084;-66
2022/01/18 06:08:03;;;;;;;31.77;9.95;;;;;;;6.22;66.19;101965.22;10467690;28;20174;-66
2022/01/18 06:13:08;;;;;;;30.45;9.27;;;;;;;6.19;66.39;101968.72;10467104;28;20136;-66
2022/01/18 06:18:10;;;;;;;28.70;9.18;;;;;;;6.23;66.21;101960.00;10467820;28;20464;-66
2022/01/18 06:23:13;;;;;;;26.20;8.38;;;;;;;6.25;66.13;101960.03;10466835;28;20060;-66
2022/01/18 06:28:15;;;;;;;34.17;10.00;;;;;;;6.17;66.24;101965.25;10467508;28;20388;-66
2022/01/18 06:33:17;;;;;;;38.42;13.45;;;;;;;6.10;66.40;101978.34;10467527;28;20137;-66
2022/01/18 06:38:19;;;;;;;27.90;10.88;;;;;;;6.10;66.72;101983.53;10448314;28;20140;-65
2022/01/18 06:43:21;;;;;;;27.33;9.68;;;;;;;6.17;66.46;101975.66;10467764;28;20147;-66
2022/01/18 06:48:23;;;;;;;28.30;9.23;;;;;;;6.25;66.06;101989.47;10467646;28;20131;-66
2022/01/18 06:53:26;;;;;;;29.25;9.50;;;;;;;6.24;66.17;101992.06;10467045;28;20143;-66
2022/01/18 06:58:28;;;;;;;25.83;9.23;;;;;;;6.16;66.33;101999.94;10467410;28;20372;-66
2022/01/18 07:03:30;;;;;;;34.70;11.50;;;;;;;6.21;66.30;102003.34;10467621;28;20159;-66
2022/01/18 07:08:32;;;;;;;28.35;11.40;;;;;;;6.11;66.37;102012.09;10467028;28;20096;-66
2022/01/18 07:13:34;;;;;;;48.50;21.00;;;;;;;6.13;66.39;102004.28;10466467;28;20532;-66
2022/01/18 07:18:40;;;;;;;40.72;16.67;;;;;;;6.11;66.22;102012.09;10466745;28;20060;-66
2022/01/18 07:23:42;;;;;;;33.75;13.38;;;;;;;6.05;66.40;102013.88;10474182;28;20083;-66
2022/01/18 07:28:44;;;;;;;36.03;12.30;;;;;;;6.03;66.51;102011.28;10472217;28;20064;-66
2022/01/18 07:33:45;;;;;;;21.48;9.07;;;;;;;6.08;66.64;102011.25;10473366;28;20055;-66
2022/01/18 07:38:47;;;;;;;32.60;9.38;;;;;;;6.16;66.50;102020.72;10455674;28;20346;-66
2022/01/18 07:43:49;;;;;;;30.33;9.43;;;;;;;6.19;66.47;102020.69;10454640;28;20421;-66
2022/01/18 07:48:51;;;;;;;21.35;8.18;;;;;;;6.25;66.33;102020.66;10473083;28;20136;-66
2022/01/18 07:53:52;;;;;;;28.48;9.88;;;;;;;6.32;66.12;102021.47;10455449;28;20052;-66
2022/01/18 07:58:54;;;;;;;29.33;10.02;;;;;;;6.34;66.19;102033.56;10472645;28;20056;-66
2022/01/18 08:03:56;;;;;;;27.23;9.75;;;;;;;6.44;66.16;102044.75;10472409;28;20143;-66
2022/01/18 08:08:57;;;;;;;25.60;10.02;;;;;;;6.46;66.17;102039.50;10454644;28;20789;-65
2022/01/18 08:14:01;;;;;;;30.08;9.35;;;;;;;6.47;66.25;102043.84;10471867;28;20049;-66
2022/01/18 08:19:04;;;;;;;25.33;8.80;;;;;;;6.55;66.03;102039.44;10471741;28;20056;-66
2022/01/18 08:24:09;;;;;;;25.73;8.68;;;;;;;6.61;65.79;102040.25;10472314;28;20175;-66
2022/01/18 08:29:12;;;;;;;27.45;9.50;;;;;;;6.70;65.79;102044.47;10471405;28;20056;-66
2022/01/18 08:34:14;;;;;;;30.65;8.98;;;;;;;6.67;66.01;102036.72;10452746;28;20721;-66
2022/01/18 08:39:16;;;;;;;30.25;9.77;;;;;;;6.73;65.85;102039.25;10470170;28;20504;-66
2022/01/18 08:44:17;;;;;;;24.73;8.38;;;;;;;6.74;65.65;102035.75;10471009;28;20044;-66
2022/01/18 08:49:19;;;;;;;28.52;8.63;;;;;;;6.82;65.47;102039.13;10470615;28;20166;-66
2022/01/18 08:54:21;;;;;;;27.75;10.55;;;;;;;6.92;65.29;102046.81;10470634;28;20063;-65
2022/01/18 08:59:23;;;;;;;26.23;9.55;;;;;;;6.96;65.37;102035.50;10452068;28;20148;-66
2022/01/18 09:04:25;;;;;;;27.02;9.30;;;;;;;6.92;65.22;102044.22;10469313;28;20135;-66
2022/01/18 09:09:26;;;;;;;20.75;8.63;;;;;;;6.87;65.56;102037.34;10470308;28;20071;-66
2022/01/18 09:14:29;;;;;;;21.80;7.72;;;;;;;6.87;65.52;102048.63;10469925;28;20063;-66
2022/01/18 09:19:31;;;;;;;22.15;7.32;;;;;;;6.99;65.27;102055.44;10452318;28;20057;-66
2022/01/18 09:24:33;;;;;;;23.20;7.53;;;;;;;7.08;65.05;102060.53;10469589;28;20100;-66
2022/01/18 09:29:35;;;;;;;22.52;7.20;;;;;;;7.21;64.74;102051.69;10468892;28;20135;-66
2022/01/18 09:34:36;;;;;;;23.35;7.75;;;;;;;7.36;64.56;102059.31;10450900;28;20073;-66
2022/01/18 09:39:39;;;;;;;30.90;9.55;;;;;;;7.61;63.92;102052.88;10468218;28;20577;-65
2022/01/18 09:44:41;;;;;;;27.92;8.93;;;;;;;7.57;63.84;102064.22;10468444;28;20052;-66
2022/01/18 09:49:42;;;;;;;22.90;8.18;;;;;;;7.68;63.41;102075.38;10468049;28;20500;-66
2022/01/18 09:54:44;;;;;;;26.27;9.13;;;;;;;7.55;63.77;102072.97;10469734;28;20361;-65
2022/01/18 09:59:46;;;;;;;24.10;9.05;;;;;;;7.63;63.88;102074.56;10448923;28;20056;-66
2022/01/18 10:04:49;;;;;;;20.33;8.50;;;;;;;7.72;63.43;102077.03;10468065;28;20143;-66
2022/01/18 10:09:59;;;;;;;19.90;8.10;;;;;;;7.79;63.21;102076.06;10468448;28;20175;-66
2022/01/18 10:15:03;;;;;;;23.30;9.80;;;;;;;7.85;63.32;102070.75;10449979;28;20617;-66
2022/01/18 10:20:14;;;;;;;23.33;10.13;;;;;;;7.71;63.59;102062.28;10468486;28;20151;-66
2022/01/18 10:25:26;;;;;;;24.08;8.60;;;;;;;7.75;63.36;102063.97;10467849;28;20159;-63
2022/01/18 10:30:38;;;;;;;21.10;8.77;;;;;;;7.93;62.94;102058.50;10437453;28;20442;-64
2022/01/18 10:36:12;;;;;;;26.80;10.00;;;;;;;8.11;62.29;102061.72;10467658;28;20067;-64
2022/01/18 10:41:32;;;;;;;24.55;8.20;;;;;;;8.21;62.04;102052.88;10466551;28;20049;-64
2022/01/18 10:46:39;;;;;;;21.42;8.55;;;;;;;8.33;62.36;102060.47;10450354;28;20062;-64
2022/01/18 10:51:43;;;;;;;26.75;10.02;;;;;;;8.31;62.33;102054.44;10466418;28;20483;-64
2022/01/18 10:56:47;;;;;;;23.63;9.77;;;;;;;8.40;62.14;102046.47;10471786;28;20078;-64
2022/01/18 11:02:10;;;;;;;20.98;9.50;;;;;;;8.28;61.11;102037.09;10475037;28;20083;-65
2022/01/18 11:07:13;;;;;;;19.02;9.30;;;;;;;8.51;61.37;102034.09;10461797;28;20080;-65
2022/01/18 11:12:16;;;;;;;17.08;8.57;;;;;;;8.70;61.12;102025.91;10457081;28;20421;-65
2022/01/18 11:17:26;;;;;;;19.73;8.57;;;;;;;8.95;60.46;102020.22;10474120;28;20055;-64
2022/01/18 11:22:27;;;;;;;18.60;8.05;;;;;;;8.88;60.26;102009.03;10475013;28;20094;-65
2022/01/18 11:27:34;;;;;;;17.40;7.43;;;;;;;8.87;59.88;102006.47;10474578;28;20059;-64
2022/01/18 11:32:36;;;;;;;17.17;8.32;;;;;;;8.85;59.91;102006.50;10474669;28;20048;-64
2022/01/18 11:37:57;;;;;;;13.18;7.25;;;;;;;8.95;59.15;101996.72;10473484;28;20074;-65
2022/01/18 11:42:59;;;;;;;16.33;6.72;;;;;;;8.89;59.32;101989.91;10473669;28;20179;-65
2022/01/18 11:48:11;;;;;;;13.95;7.10;;;;;;;8.96;59.26;101999.31;10473694;28;20251;-64
2022/01/18 11:53:37;;;;;;;13.10;7.40;;;;;;;8.93;59.23;101996.78;10473686;28;20060;-65
2022/01/18 11:58:40;;;;;;;15.25;7.10;;;;;;;8.80;59.04;102000.50;10474022;28;20394;-65
2022/01/18 12:03:44;;;;;;;16.17;7.53;;;;;;;8.73;59.60;101998.88;10473178;28;20147;-64
2022/01/18 12:08:46;;;;;;;22.92;7.60;;;;;;;8.65;59.47;101990.34;10471554;28;20059;-65
2022/01/18 12:13:57;;;;;;;18.70;7.90;;;;;;;8.74;59.32;101979.75;10473324;28;20084;-65
2022/01/18 12:19:02;;;;;;;11.63;6.47;;;;;;;8.85;58.83;101981.25;10473294;28;20099;-65
2022/01/18 12:24:19;;;;;;;13.57;6.57;;;;;;;8.88;58.36;101976.84;10454574;28;20699;-65
2022/01/18 12:34:50;;;;;;;16.67;7.43;;;;;;;8.89;58.86;101966.41;10471169;28;20055;-64
2022/01/18 12:45:05;;;;;;;12.02;5.30;;;;;;;9.11;58.20;101964.19;10471207;28;20135;-64
2022/01/18 12:50:10;;;;;;;8.35;3.78;;;;;;;9.00;57.43;101961.81;10471489;28;20155;-64
2022/01/18 12:55:25;;;;;;;6.68;2.95;;;;;;;8.72;56.99;101963.28;10471611;28;20139;-64
2022/01/18 13:00:27;;;;;;;5.95;2.90;;;;;;;8.57;57.19;101954.00;10470261;28;20165;-64
2022/01/18 13:05:41;;;;;;;5.80;3.50;;;;;;;8.50;56.33;101952.41;10470699;28;20296;-64
2022/01/18 13:10:47;;;;;;;6.53;3.25;;;;;;;8.71;57.09;101945.88;10470738;28;20060;-64
2022/01/18 13:26:33;;;;;;;8.87;3.03;;;;;;;8.65;54.41;101946.00;10470109;28;20128;-64
2022/01/18 13:31:34;;;;;;;5.00;2.55;;;;;;;8.50;55.61;101941.97;10470056;28;20151;-64
2022/01/18 13:36:48;;;;;;;4.93;2.50;;;;;;;8.47;55.07;101938.56;10468989;28;20057;-64
2022/01/18 13:41:50;;;;;;;4.13;2.20;;;;;;;8.73;55.24;101929.31;10469482;28;20058;-64
2022/01/18 13:46:52;;;;;;;4.35;2.53;;;;;;;8.62;55.30;101930.44;10468754;28;20056;-64
2022/01/18 13:52:06;;;;;;;4.82;2.58;;;;;;;8.62;55.13;101920.00;10468696;28;20052;-64
2022/01/18 13:57:08;;;;;;;6.68;2.70;;;;;;;8.56;55.77;101920.13;10468701;28;20083;-64
2022/01/18 14:02:12;;;;;;;4.35;2.30;;;;;;;8.63;55.49;101911.28;10467974;28;20064;-64
2022/01/18 14:07:14;;;;;;;4.50;2.22;;;;;;;8.61;55.72;101907.84;10468300;28;20067;-64
2022/01/18 14:12:17;;;;;;;6.93;2.28;;;;;;;8.57;55.22;101911.41;10468498;28;20092;-64
2022/01/18 14:17:21;;;;;;;7.82;2.13;;;;;;;8.61;55.05;101918.28;10468218;28;20092;-64
2022/01/18 14:22:27;;;;;;;3.47;1.48;;;;;;;8.55;54.66;101923.63;10469395;28;20060;-64
2022/01/18 14:27:37;;;;;;;4.88;1.80;;;;;;;8.61;54.69;101918.28;10467400;28;20080;-64
2022/01/18 14:32:42;;;;;;;3.17;1.48;;;;;;;8.61;54.21;101907.84;10467357;28;20139;-64
2022/01/18 14:38:02;;;;;;;4.13;1.65;;;;;;;8.62;54.26;101904.34;10467925;28;20593;-64
2022/01/18 14:43:12;;;;;;;4.20;1.80;;;;;;;8.54;53.70;101914.97;10468187;28;20504;-64
2022/01/18 14:48:14;;;;;;;4.90;1.80;;;;;;;8.56;54.23;101907.09;10466698;28;20559;-64
2022/01/18 14:53:17;;;;;;;3.15;1.50;;;;;;;8.50;54.40;101904.59;10468069;28;20095;-64
2022/01/18 14:58:19;;;;;;;3.20;1.40;;;;;;;8.50;54.18;101900.25;10467502;28;20965;-64
2022/01/18 15:03:21;;;;;;;5.32;1.60;;;;;;;8.49;54.08;101898.53;10467190;28;20810;-64
2022/01/18 15:08:23;;;;;;;3.67;1.50;;;;;;;8.46;54.96;101890.78;10449661;28;20140;-64
2022/01/18 15:13:30;;;;;;;4.15;1.50;;;;;;;8.41;55.31;101890.00;10467813;28;20056;-64
2022/01/18 15:18:32;;;;;;;3.70;1.77;;;;;;;8.30;54.65;101891.09;10466467;28;20455;-64
2022/01/18 15:23:34;;;;;;;2.25;1.20;;;;;;;8.21;54.27;101886.94;10467048;28;20850;-64
2022/01/18 15:28:35;;;;;;;3.38;1.02;;;;;;;7.96;53.70;101880.41;10467343;28;20133;-64
2022/01/18 15:33:37;;;;;;;3.80;1.10;;;;;;;7.81;53.58;101880.69;10466170;28;20312;-64
2022/01/18 15:38:39;;;;;;;2.28;1.10;;;;;;;7.82;53.91;101875.44;10467129;28;20127;-64
2022/01/18 15:43:41;;;;;;;2.95;1.60;;;;;;;7.76;53.51;101870.34;10473431;28;20131;-64
2022/01/18 15:48:43;;;;;;;4.65;1.60;;;;;;;7.64;53.62;101872.31;10472732;28;20052;-64
2022/01/18 15:53:46;;;;;;;5.43;1.70;;;;;;;7.65;53.06;101863.63;10473464;28;20071;-64
2022/01/18 15:58:48;;;;;;;4.07;1.90;;;;;;;7.68;53.87;101880.03;10455011;28;20074;-64
2022/01/18 16:03:49;;;;;;;4.43;1.58;;;;;;;7.68;54.37;101872.22;10472873;28;20511;-64
2022/01/18 16:08:52;;;;;;;4.82;1.90;;;;;;;7.62;55.02;101866.25;10473798;28;20126;-64
2022/01/18 16:13:54;;;;;;;4.22;2.30;;;;;;;7.56;55.25;101872.44;10473061;28;20140;-64
2022/01/18 16:18:56;;;;;;;5.57;1.95;;;;;;;7.51;55.28;101879.44;10472763;28;20873;-64
2022/01/18 16:23:57;;;;;;;4.68;2.15;;;;;;;7.52;55.42;101875.13;10454819;28;20088;-64
2022/01/18 16:28:59;;;;;;;6.05;2.10;;;;;;;7.46;56.10;101873.47;10471619;28;20075;-64
2022/01/18 16:34:03;;;;;;;4.97;2.03;;;;;;;7.38;56.14;101867.53;10472275;28;20063;-64
2022/01/18 16:39:05;;;;;;;3.58;1.60;;;;;;;7.31;56.31;101870.22;10472437;28;20344;-64
2022/01/18 16:44:07;;;;;;;7.07;2.55;;;;;;;7.30;56.33;101876.34;10471587;28;20131;-64
2022/01/18 16:49:09;;;;;;;5.03;1.90;;;;;;;7.33;56.23;101878.88;10471099;28;20063;-64
2022/01/18 16:54:11;;;;;;;6.90;2.17;;;;;;;7.20;55.19;101881.66;10471776;28;20135;-65
2022/01/18 16:59:14;;;;;;;4.47;1.90;;;;;;;7.29;55.87;101879.81;10469900;28;20466;-64
2022/01/18 17:04:15;;;;;;;5.15;2.00;;;;;;;7.35;56.48;101875.38;10470923;28;20136;-64
2022/01/18 17:09:17;;;;;;;5.15;2.00;;;;;;;7.36;56.12;101865.84;10470514;28;20056;-64
2022/01/18 17:14:19;;;;;;;5.25;3.10;;;;;;;7.40;56.26;101862.28;10470019;28;20055;-64
2022/01/18 17:19:21;;;;;;;11.35;3.03;;;;;;;7.40;56.86;101875.31;10470359;28;20518;-64
2022/01/18 17:24:23;;;;;;;4.82;2.60;;;;;;;7.37;57.16;101876.22;10470741;28;20240;-64
2022/01/18 17:29:25;;;;;;;4.75;2.22;;;;;;;7.25;56.24;101871.19;10469904;28;20084;-64
2022/01/18 17:34:26;;;;;;;6.40;2.40;;;;;;;7.15;55.94;101869.63;10469803;28;20481;-64
2022/01/18 17:39:29;;;;;;;6.88;2.88;;;;;;;7.04;56.04;101869.78;10469669;28;20440;-64
2022/01/18 17:44:31;;;;;;;7.13;3.05;;;;;;;7.05;56.67;101878.44;10469693;28;20163;-64
2022/01/18 17:49:33;;;;;;;11.25;6.25;;;;;;;7.08;57.30;101876.66;10469766;28;20159;-64
2022/01/18 17:54:34;;;;;;;6.55;3.30;;;;;;;7.04;56.94;101874.13;10468881;28;20059;-64
2022/01/18 17:59:36;;;;;;;6.70;2.90;;;;;;;7.02;56.61;101870.69;10450752;28;20058;-64
2022/01/18 18:04:39;;;;;;;9.68;5.30;;;;;;;6.90;57.05;101865.66;10468528;28;20133;-64
2022/01/18 18:09:48;;;;;;;5.88;2.40;;;;;;;6.92;56.62;101859.53;10468711;28;20163;-64
2022/01/18 18:14:50;;;;;;;6.28;3.38;;;;;;;7.02;56.72;101852.50;10467982;28;20156;-64
2022/01/18 18:19:52;;;;;;;6.93;3.53;;;;;;;7.02;56.94;101848.13;10445424;28;20244;-64
2022/01/18 18:24:58;;;;;;;9.32;3.85;;;;;;;6.96;57.26;101844.75;10464523;28;20135;-64
2022/01/18 18:30:01;;;;;;;10.35;4.40;;;;;;;6.98;57.33;101856.84;10464932;28;20134;-64
2022/01/18 18:35:03;;;;;;;9.18;4.50;;;;;;;6.97;57.88;101852.56;10466828;28;20059;-64
2022/01/18 18:40:12;;;;;;;9.88;5.07;;;;;;;6.93;58.42;101848.28;10466414;28;20048;-64
2022/01/18 18:45:13;;;;;;;10.65;5.70;;;;;;;6.82;58.73;101833.69;10463204;28;20125;-64
2022/01/18 18:50:16;;;;;;;8.80;5.13;;;;;;;6.83;58.94;101809.41;10463791;28;20275;-64
2022/01/18 18:55:19;;;;;;;8.88;5.22;;;;;;;6.77;59.19;101809.50;10465000;28;20188;-64
2022/01/18 19:00:35;;;;;;;9.90;5.07;;;;;;;6.82;59.28;101831.94;10465310;28;20535;-64
2022/01/18 19:05:36;;;;;;;9.52;5.05;;;;;;;6.63;59.32;101840.03;10465212;28;20523;-64
2022/01/18 19:10:38;;;;;;;10.82;5.13;;;;;;;6.67;58.89;101849.50;10466344;28;20414;-64
2022/01/18 19:15:44;;;;;;;12.55;5.25;;;;;;;6.66;58.86;101846.06;10465365;28;20500;-64
2022/01/18 19:20:58;;;;;;;8.88;4.78;;;;;;;6.59;58.76;101834.03;10473232;28;20457;-64
2022/01/18 19:26:00;;;;;;;7.78;3.80;;;;;;;6.57;58.88;101829.72;10473752;28;20049;-64
2022/01/18 19:31:02;;;;;;;9.23;3.80;;;;;;;6.60;58.82;101835.72;10473447;28;20131;-64
2022/01/18 19:36:04;;;;;;;9.07;3.75;;;;;;;6.53;58.32;101836.69;10455673;28;20052;-64
2022/01/18 19:41:06;;;;;;;8.15;4.20;;;;;;;6.37;58.44;101836.91;10472832;28;20296;-64
2022/01/18 19:46:08;;;;;;;8.55;3.30;;;;;;;6.30;58.05;101825.72;10471472;28;20044;-64
2022/01/18 19:51:10;;;;;;;10.57;3.60;;;;;;;6.33;57.89;101816.16;10471391;28;20088;-64
2022/01/18 19:56:11;;;;;;;7.50;2.80;;;;;;;6.37;57.67;101822.16;10454912;28;20143;-64
2022/01/18 20:01:13;;;;;;;8.40;2.75;;;;;;;6.42;57.33;101824.72;10471740;28;20059;-64
2022/01/18 20:06:15;;;;;;;8.30;2.90;;;;;;;6.44;57.38;101822.94;10469098;28;20208;-64
2022/01/18 20:11:18;;;;;;;4.85;2.35;;;;;;;6.48;56.88;101815.09;10469688;28;20135;-64
2022/01/18 20:16:21;;;;;;;6.35;2.63;;;;;;;6.29;56.72;101801.47;10470876;28;20055;-64
2022/01/18 20:21:22;;;;;;;4.05;2.60;;;;;;;6.17;56.89;101790.34;10471374;28;20400;-64
2022/01/18 20:26:25;;;;;;;3.35;1.80;;;;;;;6.16;57.09;101792.09;10470555;28;20598;-64
2022/01/18 20:31:29;;;;;;;3.63;1.50;;;;;;;6.19;57.43;101773.00;10469607;28;20048;-64
2022/01/18 20:36:33;;;;;;;3.58;1.80;;;;;;;6.19;57.03;101779.06;10467750;28;20114;-64
2022/01/18 20:43:35;;;;;;;3.33;1.65;;;;;;;6.22;57.01;101783.38;10470745;28;20064;-64
2022/01/18 20:46:56;;;;;;;4.15;1.70;;;;;;;6.19;57.54;101776.47;10470589;28;20049;-64
2022/01/18 20:51:58;;;;;;;3.60;1.80;;;;;;;6.05;57.08;101773.19;10470081;28;20049;-64
2022/01/18 20:57:00;;;;;;;4.15;1.90;;;;;;;5.98;57.19;101763.72;10470264;28;20131;-64
2022/01/18 21:02:03;;;;;;;4.15;1.85;;;;;;;5.99;57.06;101742.09;10469422;28;20052;-64
2022/01/18 21:07:07;;;;;;;5.65;2.03;;;;;;;5.96;57.51;101729.13;10469273;28;20106;-64
2022/01/18 21:12:10;;;;;;;3.58;1.70;;;;;;;5.94;57.30;101717.91;10468832;28;20163;-64
2022/01/18 21:17:22;;;;;;;3.85;1.95;;;;;;;6.00;57.02;101696.22;10468198;28;20084;-64
2022/01/18 21:22:24;;;;;;;2.58;1.73;;;;;;;5.99;57.34;101692.75;10469707;28;20146;-65
2022/01/18 21:27:26;;;;;;;3.40;1.80;;;;;;;5.94;57.08;101691.94;10467897;28;20221;-65
2022/01/18 21:32:27;;;;;;;2.72;1.63;;;;;;;5.84;57.63;101679.94;10468914;28;20084;-65
2022/01/18 21:37:29;;;;;;;4.20;2.10;;;;;;;5.73;58.03;101687.03;10467892;28;20223;-65
2022/01/18 21:42:31;;;;;;;4.38;2.30;;;;;;;5.61;57.87;101688.91;10464851;28;20515;-64
2022/01/18 21:47:33;;;;;;;4.25;2.20;;;;;;;5.56;58.50;101691.53;10450443;28;20095;-64
2022/01/18 21:52:34;;;;;;;5.63;2.33;;;;;;;5.55;58.55;101692.44;10467244;28;20052;-64
2022/01/18 21:57:36;;;;;;;3.90;2.30;;;;;;;5.54;58.92;101672.53;10449132;28;20558;-64
2022/01/18 22:02:41;;;;;;;3.60;2.13;;;;;;;5.55;58.46;101671.66;10468792;28;20322;-64
2022/01/18 22:07:45;;;;;;;3.78;1.90;;;;;;;5.62;58.68;101656.84;10466653;28;20571;-64
2022/01/18 22:12:47;;;;;;;3.63;2.00;;;;;;;5.64;58.82;101642.13;10469498;28;20533;-64
2022/01/18 22:17:49;;;;;;;6.35;2.92;;;;;;;5.54;58.48;101633.59;10468822;28;20362;-64
2022/01/18 22:22:50;;;;;;;5.28;3.00;;;;;;;5.61;58.39;101629.22;10451508;28;20168;-63
2022/01/18 22:27:52;;;;;;;5.70;2.90;;;;;;;5.66;59.01;101615.28;10450608;28;20056;-63
2022/01/18 22:32:55;;;;;;;5.95;2.63;;;;;;;5.56;59.16;101611.09;10459964;28;20760;-62
2022/01/18 22:37:59;;;;;;;6.03;2.50;;;;;;;5.57;59.37;101603.28;10462044;28;20048;-62
2022/01/18 22:43:01;;;;;;;3.95;2.42;;;;;;;5.58;59.02;101598.94;10466645;28;20526;-65
2022/01/18 22:48:04;;;;;;;5.72;2.80;;;;;;;5.60;59.18;101594.59;10466819;28;20131;-62
2022/01/18 22:53:06;;;;;;;5.65;2.70;;;;;;;5.56;59.00;101582.53;10471699;28;20342;-64
2022/01/18 22:58:08;;;;;;;4.43;2.78;;;;;;;5.59;58.96;101574.72;10458351;28;20059;-64
2022/01/18 23:03:10;;;;;;;5.43;3.10;;;;;;;5.67;59.25;101578.09;10475159;28;20059;-64
2022/01/18 23:08:12;;;;;;;6.25;3.00;;;;;;;5.61;58.86;101582.50;10456035;28;20061;-64
2022/01/18 23:13:15;;;;;;;4.15;2.50;;;;;;;5.56;58.79;101587.72;10473932;28;20239;-63
2022/01/18 23:18:17;;;;;;;5.38;2.83;;;;;;;5.54;58.85;101579.97;10472736;28;20128;-64
2022/01/18 23:23:19;;;;;;;5.55;3.03;;;;;;;5.62;58.90;101579.88;10473439;28;20079;-64
2022/01/18 23:28:21;;;;;;;4.90;2.80;;;;;;;5.60;59.15;101570.38;10474866;28;20447;-63
2022/01/18 23:33:23;;;;;;;4.30;2.80;;;;;;;5.59;59.41;101556.56;10473654;28;20565;-64
2022/01/18 23:38:30;;;;;;;4.35;2.70;;;;;;;5.57;59.43;101568.69;10474340;28;20467;-64
2022/01/18 23:43:32;;;;;;;3.72;2.30;;;;;;;5.59;58.93;101547.91;10473162;28;20059;-64
2022/01/18 23:48:34;;;;;;;4.03;2.38;;;;;;;5.49;58.83;101531.63;10454708;28;20251;-64
2022/01/18 23:53:37;;;;;;;4.00;2.70;;;;;;;5.44;59.00;101523.91;10473253;28;20134;-63
2022/01/18 23:58:39;;;;;;;5.22;3.40;;;;;;;5.44;58.91;101517.84;10472419;28;20048;-64
